sensor_id;sensor_type;location;lat;lon;timestamp;P1;durP1;ratioP1;P2;durP2;ratioP2
43540;SDS011;29549;40.386;-3.710;2023-07-31T00:09:02;2.47;;;2.05;;
43540;SDS011;29549;40.386;-3.710;2023-07-31T00:19:03;3.25;;;2.38;;
43540;SDS011;29549;40.386;-3.710;2023-07-31T00:29:04;2.72;;;2.20;;
43540;SDS011;29549;40.386;-3.710;2023-07-31T00:39:05;4.35;;;2.17;;
43540;SDS011;29549;40.386;-3.710;2023-07-31T00:49:05;5.47;;;3.03;;
43540;SDS011;29549;40.386;-3.710;2023-07-31T00:59:07;2.05;;;1.60;;
43540;SDS011;29549;40.386;-3.710;2023-07-31T01:19:35;4.90;;;1.98;;
43540;SDS011;29549;40.386;-3.710;2023-07-31T01:29:56;6.20;;;2.22;;
43540;SDS011;29549;40.386;-3.710;2023-07-31T01:40:10;2.28;;;1.60;;
43540;SDS011;29549;40.386;-3.710;2023-07-31T01:50:11;1.90;;;1.40;;
43540;SDS011;29549;40.386;-3.710;2023-07-31T02:00:12;2.50;;;1.80;;
43540;SDS011;29549;40.386;-3.710;2023-07-31T02:10:13;3.55;;;1.60;;
43540;SDS011;29549;40.386;-3.710;2023-07-31T02:20:14;3.03;;;1.50;;
43540;SDS011;29549;40.386;-3.710;2023-07-31T02:30:14;2.03;;;1.40;;
43540;SDS011;29549;40.386;-3.710;2023-07-31T02:40:15;2.35;;;1.75;;
43540;SDS011;29549;40.386;-3.710;2023-07-31T03:00:16;3.53;;;1.93;;
43540;SDS011;29549;40.386;-3.710;2023-07-31T03:20:18;3.07;;;2.33;;
43540;SDS011;29549;40.386;-3.710;2023-07-31T03:30:19;2.17;;;1.50;;
43540;SDS011;29549;40.386;-3.710;2023-07-31T03:40:19;3.13;;;1.70;;
43540;SDS011;29549;40.386;-3.710;2023-07-31T03:50:20;3.00;;;1.60;;
43540;SDS011;29549;40.386;-3.710;2023-07-31T04:00:21;2.30;;;1.70;;
43540;SDS011;29549;40.386;-3.710;2023-07-31T04:10:22;2.35;;;1.40;;
43540;SDS011;29549;40.386;-3.710;2023-07-31T04:20:23;2.47;;;1.55;;
43540;SDS011;29549;40.386;-3.710;2023-07-31T04:30:24;2.07;;;1.43;;
43540;SDS011;29549;40.386;-3.710;2023-07-31T04:40:25;3.47;;;1.73;;
43540;SDS011;29549;40.386;-3.710;2023-07-31T04:50:25;3.93;;;1.70;;
43540;SDS011;29549;40.386;-3.710;2023-07-31T05:00:26;2.57;;;1.70;;
43540;SDS011;29549;40.386;-3.710;2023-07-31T05:10:27;2.73;;;1.60;;
43540;SDS011;29549;40.386;-3.710;2023-07-31T05:20:28;5.17;;;1.80;;
43540;SDS011;29549;40.386;-3.710;2023-07-31T05:30:31;3.30;;;1.50;;
43540;SDS011;29549;40.386;-3.710;2023-07-31T05:40:33;2.30;;;1.80;;
43540;SDS011;29549;40.386;-3.710;2023-07-31T05:50:33;2.88;;;1.90;;
43540;SDS011;29549;40.386;-3.710;2023-07-31T06:00:34;3.20;;;2.20;;
43540;SDS011;29549;40.386;-3.710;2023-07-31T06:10:35;1.90;;;1.40;;
43540;SDS011;29549;40.386;-3.710;2023-07-31T06:20:36;3.70;;;1.83;;
43540;SDS011;29549;40.386;-3.710;2023-07-31T06:30:37;4.60;;;1.83;;
43540;SDS011;29549;40.386;-3.710;2023-07-31T06:40:37;4.17;;;2.10;;
43540;SDS011;29549;40.386;-3.710;2023-07-31T06:50:38;4.57;;;2.03;;
43540;SDS011;29549;40.386;-3.710;2023-07-31T07:00:39;3.17;;;1.73;;
43540;SDS011;29549;40.386;-3.710;2023-07-31T07:10:39;3.10;;;1.87;;
43540;SDS011;29549;40.386;-3.710;2023-07-31T07:20:45;3.97;;;2.10;;
43540;SDS011;29549;40.386;-3.710;2023-07-31T07:30:51;5.90;;;3.55;;
43540;SDS011;29549;40.386;-3.710;2023-07-31T07:40:53;2.88;;;1.95;;
43540;SDS011;29549;40.386;-3.710;2023-07-31T07:50:54;7.20;;;2.45;;
43540;SDS011;29549;40.386;-3.710;2023-07-31T08:00:55;4.22;;;2.03;;
43540;SDS011;29549;40.386;-3.710;2023-07-31T08:10:55;5.85;;;2.20;;
43540;SDS011;29549;40.386;-3.710;2023-07-31T08:20:56;4.93;;;2.22;;
43540;SDS011;29549;40.386;-3.710;2023-07-31T08:30:57;5.70;;;2.10;;
43540;SDS011;29549;40.386;-3.710;2023-07-31T08:40:58;7.07;;;2.22;;
43540;SDS011;29549;40.386;-3.710;2023-07-31T08:50:59;5.03;;;2.08;;
43540;SDS011;29549;40.386;-3.710;2023-07-31T09:01:00;4.97;;;2.00;;
43540;SDS011;29549;40.386;-3.710;2023-07-31T09:11:03;3.05;;;2.08;;
43540;SDS011;29549;40.386;-3.710;2023-07-31T09:21:05;8.40;;;3.33;;
43540;SDS011;29549;40.386;-3.710;2023-07-31T09:31:06;5.07;;;2.45;;
43540;SDS011;29549;40.386;-3.710;2023-07-31T09:41:07;7.93;;;3.42;;
43540;SDS011;29549;40.386;-3.710;2023-07-31T09:51:08;5.00;;;2.05;;
43540;SDS011;29549;40.386;-3.710;2023-07-31T10:01:09;4.32;;;2.38;;
43540;SDS011;29549;40.386;-3.710;2023-07-31T10:11:10;3.05;;;2.20;;
43540;SDS011;29549;40.386;-3.710;2023-07-31T10:21:14;8.18;;;2.50;;
43540;SDS011;29549;40.386;-3.710;2023-07-31T10:31:15;3.40;;;2.78;;
43540;SDS011;29549;40.386;-3.710;2023-07-31T10:41:17;4.93;;;2.53;;
43540;SDS011;29549;40.386;-3.710;2023-07-31T10:51:17;14.77;;;3.20;;
43540;SDS011;29549;40.386;-3.710;2023-07-31T11:01:22;8.13;;;3.70;;
43540;SDS011;29549;40.386;-3.710;2023-07-31T11:11:23;6.32;;;2.20;;
43540;SDS011;29549;40.386;-3.710;2023-07-31T11:21:24;10.52;;;3.00;;
43540;SDS011;29549;40.386;-3.710;2023-07-31T11:31:26;8.95;;;2.75;;
43540;SDS011;29549;40.386;-3.710;2023-07-31T11:41:28;7.55;;;3.00;;
43540;SDS011;29549;40.386;-3.710;2023-07-31T11:51:29;6.00;;;2.88;;
43540;SDS011;29549;40.386;-3.710;2023-07-31T12:01:30;3.28;;;1.90;;
43540;SDS011;29549;40.386;-3.710;2023-07-31T12:11:41;7.22;;;2.35;;
43540;SDS011;29549;40.386;-3.710;2023-07-31T12:21:46;4.00;;;2.40;;
43540;SDS011;29549;40.386;-3.710;2023-07-31T12:31:47;4.60;;;2.30;;
43540;SDS011;29549;40.386;-3.710;2023-07-31T12:41:48;6.28;;;4.20;;
43540;SDS011;29549;40.386;-3.710;2023-07-31T12:51:49;4.72;;;3.00;;
43540;SDS011;29549;40.386;-3.710;2023-07-31T13:01:49;3.00;;;2.17;;
43540;SDS011;29549;40.386;-3.710;2023-07-31T13:11:50;3.47;;;2.05;;
43540;SDS011;29549;40.386;-3.710;2023-07-31T13:21:51;10.00;;;3.95;;
43540;SDS011;29549;40.386;-3.710;2023-07-31T13:31:52;7.72;;;3.20;;
43540;SDS011;29549;40.386;-3.710;2023-07-31T13:41:53;6.55;;;4.35;;
43540;SDS011;29549;40.386;-3.710;2023-07-31T13:51:54;4.75;;;2.03;;
43540;SDS011;29549;40.386;-3.710;2023-07-31T14:01:54;4.45;;;1.70;;
43540;SDS011;29549;40.386;-3.710;2023-07-31T14:11:55;3.15;;;1.80;;
43540;SDS011;29549;40.386;-3.710;2023-07-31T14:21:58;5.05;;;2.08;;
43540;SDS011;29549;40.386;-3.710;2023-07-31T14:31:59;2.10;;;1.80;;
43540;SDS011;29549;40.386;-3.710;2023-07-31T14:42:00;3.30;;;1.70;;
43540;SDS011;29549;40.386;-3.710;2023-07-31T14:52:01;4.15;;;2.13;;
43540;SDS011;29549;40.386;-3.710;2023-07-31T15:02:01;2.67;;;1.80;;
43540;SDS011;29549;40.386;-3.710;2023-07-31T15:12:03;3.05;;;2.08;;
43540;SDS011;29549;40.386;-3.710;2023-07-31T15:22:04;4.55;;;2.03;;
43540;SDS011;29549;40.386;-3.710;2023-07-31T15:32:05;3.42;;;1.90;;
43540;SDS011;29549;40.386;-3.710;2023-07-31T15:42:06;4.80;;;2.00;;
43540;SDS011;29549;40.386;-3.710;2023-07-31T15:52:09;3.53;;;2.10;;
43540;SDS011;29549;40.386;-3.710;2023-07-31T16:02:09;2.72;;;1.98;;
43540;SDS011;29549;40.386;-3.710;2023-07-31T16:12:11;3.60;;;2.50;;
43540;SDS011;29549;40.386;-3.710;2023-07-31T16:22:12;2.80;;;2.00;;
43540;SDS011;29549;40.386;-3.710;2023-07-31T16:32:13;3.60;;;2.50;;
43540;SDS011;29549;40.386;-3.710;2023-07-31T16:42:14;3.80;;;2.42;;
43540;SDS011;29549;40.386;-3.710;2023-07-31T16:52:15;3.03;;;2.15;;
43540;SDS011;29549;40.386;-3.710;2023-07-31T17:02:15;2.92;;;2.17;;
43540;SDS011;29549;40.386;-3.710;2023-07-31T17:12:16;7.10;;;3.35;;
43540;SDS011;29549;40.386;-3.710;2023-07-31T17:22:17;5.50;;;2.90;;
43540;SDS011;29549;40.386;-3.710;2023-07-31T17:32:17;3.70;;;2.70;;
43540;SDS011;29549;40.386;-3.710;2023-07-31T17:42:18;5.35;;;3.35;;
43540;SDS011;29549;40.386;-3.710;2023-07-31T17:52:19;5.93;;;3.10;;
43540;SDS011;29549;40.386;-3.710;2023-07-31T18:02:21;6.03;;;3.42;;
43540;SDS011;29549;40.386;-3.710;2023-07-31T18:12:22;7.45;;;3.60;;
43540;SDS011;29549;40.386;-3.710;2023-07-31T18:22:22;7.97;;;3.38;;
43540;SDS011;29549;40.386;-3.710;2023-07-31T18:32:23;7.88;;;3.55;;
43540;SDS011;29549;40.386;-3.710;2023-07-31T18:42:24;8.32;;;3.67;;
43540;SDS011;29549;40.386;-3.710;2023-07-31T18:52:25;6.05;;;3.60;;
43540;SDS011;29549;40.386;-3.710;2023-07-31T19:02:25;6.55;;;4.13;;
43540;SDS011;29549;40.386;-3.710;2023-07-31T19:12:26;6.35;;;5.10;;
43540;SDS011;29549;40.386;-3.710;2023-07-31T19:22:27;6.15;;;4.10;;
43540;SDS011;29549;40.386;-3.710;2023-07-31T19:32:29;4.07;;;2.80;;
43540;SDS011;29549;40.386;-3.710;2023-07-31T19:42:30;4.38;;;2.85;;
43540;SDS011;29549;40.386;-3.710;2023-07-31T19:52:32;5.53;;;2.83;;
43540;SDS011;29549;40.386;-3.710;2023-07-31T20:02:33;5.40;;;3.33;;
43540;SDS011;29549;40.386;-3.710;2023-07-31T20:12:34;5.25;;;3.72;;
43540;SDS011;29549;40.386;-3.710;2023-07-31T20:22:36;5.97;;;4.47;;
43540;SDS011;29549;40.386;-3.710;2023-07-31T20:32:37;6.22;;;4.05;;
43540;SDS011;29549;40.386;-3.710;2023-07-31T20:42:38;4.78;;;3.83;;
43540;SDS011;29549;40.386;-3.710;2023-07-31T20:52:38;5.13;;;3.67;;
43540;SDS011;29549;40.386;-3.710;2023-07-31T21:02:39;9.13;;;6.78;;
43540;SDS011;29549;40.386;-3.710;2023-07-31T21:12:41;5.18;;;3.50;;
43540;SDS011;29549;40.386;-3.710;2023-07-31T21:22:42;8.07;;;4.15;;
43540;SDS011;29549;40.386;-3.710;2023-07-31T21:32:42;8.07;;;4.45;;
43540;SDS011;29549;40.386;-3.710;2023-07-31T21:42:44;5.82;;;3.50;;
43540;SDS011;29549;40.386;-3.710;2023-07-31T21:52:44;5.72;;;3.92;;
43540;SDS011;29549;40.386;-3.710;2023-07-31T22:02:46;3.63;;;3.10;;
43540;SDS011;29549;40.386;-3.710;2023-07-31T22:12:46;6.03;;;3.80;;
43540;SDS011;29549;40.386;-3.710;2023-07-31T22:22:47;4.65;;;3.50;;
43540;SDS011;29549;40.386;-3.710;2023-07-31T22:32:48;5.40;;;3.40;;
43540;SDS011;29549;40.386;-3.710;2023-07-31T22:42:49;6.65;;;4.45;;
43540;SDS011;29549;40.386;-3.710;2023-07-31T22:52:49;6.50;;;3.78;;
43540;SDS011;29549;40.386;-3.710;2023-07-31T23:02:50;6.28;;;4.78;;
43540;SDS011;29549;40.386;-3.710;2023-07-31T23:12:51;8.25;;;5.68;;
43540;SDS011;29549;40.386;-3.710;2023-07-31T23:22:52;8.05;;;5.13;;
43540;SDS011;29549;40.386;-3.710;2023-07-31T23:32:52;8.00;;;5.25;;
43540;SDS011;29549;40.386;-3.710;2023-07-31T23:42:53;7.13;;;5.35;;
43540;SDS011;29549;40.386;-3.710;2023-07-31T23:52:54;7.00;;;5.30;;
